Time;durP1;ratioP1;P1;durP2;ratioP2;P2;SDS_P1;SDS_P2;PMS_P1;PMS_P2;Temp;Humidity;BMP_temperature;BMP_pressure;BME280_temperature;BME280_humidity;BME280_pressure;Samples;Min_cycle;Max_cycle;Signal;HPM_P1;HPM_P2
2023/05/10 00:00:38;;;;;;;67.15;34.80;;;;;;;11.33;100.00;100721.72;5112988;28;20080;-50
2023/05/10 00:03:06;;;;;;;59.53;31.70;;;;;;;11.29;100.00;100718.19;5112930;28;20020;-50
2023/05/10 00:05:32;;;;;;;59.92;33.08;;;;;;;11.25;100.00;100718.09;5112561;28;20032;-49
2023/05/10 00:07:57;;;;;;;66.32;35.03;;;;;;;11.23;100.00;100720.59;5113314;28;20535;-47
2023/05/10 00:10:23;;;;;;;60.28;35.13;;;;;;;11.22;100.00;100723.16;5112192;28;20394;-48
2023/05/10 00:12:48;;;;;;;64.10;34.60;;;;;;;11.15;100.00;100717.84;5112895;28;20054;-47
2023/05/10 00:15:13;;;;;;;67.80;36.55;;;;;;;11.19;100.00;100719.69;5113081;28;20076;-50
2023/05/10 00:17:39;;;;;;;77.40;36.85;;;;;;;11.15;100.00;100716.97;5112322;28;20024;-47
2023/05/10 00:20:05;;;;;;;70.80;38.38;;;;;;;11.12;100.00;100717.75;5113008;28;20348;-46
2023/05/10 00:22:31;;;;;;;76.55;40.22;;;;;;;11.13;100.00;100719.50;5112954;28;20080;-48
2023/05/10 00:24:56;;;;;;;69.40;39.65;;;;;;;11.09;100.00;100715.13;5112487;28;20159;-47
2023/05/10 00:27:22;;;;;;;72.28;39.28;;;;;;;11.06;100.00;100712.44;5112777;28;20044;-48
2023/05/10 00:29:47;;;;;;;77.28;40.00;;;;;;;11.03;100.00;100717.53;5112983;28;20372;-50
2023/05/10 00:32:13;;;;;;;75.43;41.47;;;;;;;11.02;100.00;100714.06;5112377;28;20026;-47
2023/05/10 00:34:39;;;;;;;83.75;43.83;;;;;;;11.02;100.00;100715.78;5112696;28;20054;-51
2023/05/10 00:37:04;;;;;;;87.80;43.45;;;;;;;10.99;100.00;100715.72;5112617;28;20050;-46
2023/05/10 00:39:30;;;;;;;85.78;44.67;;;;;;;10.95;100.00;100711.28;5112515;28;20107;-50
2023/05/10 00:41:55;;;;;;;92.47;43.97;;;;;;;10.92;100.00;100718.97;5113004;28;20023;-47
2023/05/10 00:44:20;;;;;;;91.82;45.33;;;;;;;10.90;100.00;100718.03;5112067;28;20024;-49
2023/05/10 00:46:47;;;;;;;87.00;45.22;;;;;;;10.89;100.00;100726.63;5112603;28;20031;-48
2023/05/10 00:49:12;;;;;;;101.53;47.28;;;;;;;10.91;100.00;100722.38;5112843;28;20028;-47
2023/05/10 00:51:38;;;;;;;100.22;45.88;;;;;;;10.87;100.00;100717.13;5112120;28;20019;-51
2023/05/10 00:54:03;;;;;;;94.38;45.67;;;;;;;10.84;100.00;100717.03;5112751;28;20042;-52
2023/05/10 00:56:29;;;;;;;100.00;47.17;;;;;;;10.83;100.00;100710.16;5112469;28;20069;-48
2023/05/10 00:58:55;;;;;;;113.95;47.13;;;;;;;10.77;100.00;100715.16;5112181;28;20028;-49
2023/05/10 01:01:20;;;;;;;93.60;46.03;;;;;;;10.73;100.00;100715.91;5112147;28;20032;-48
2023/05/10 01:03:46;;;;;;;104.15;48.53;;;;;;;10.75;100.00;100716.81;5112897;28;20023;-46
2023/05/10 01:06:12;;;;;;;107.63;49.63;;;;;;;10.77;100.00;100714.25;5112308;28;20057;-47
2023/05/10 01:08:38;;;;;;;113.53;52.80;;;;;;;10.80;100.00;100707.50;5112161;28;20100;-48
2023/05/10 01:11:03;;;;;;;122.32;54.15;;;;;;;10.81;100.00;100711.81;5112548;28;20620;-48
2023/05/10 01:13:41;;;;;;;131.63;56.35;;;;;;;10.85;100.00;100707.63;5111936;28;20106;-48
2023/05/10 01:16:06;;;;;;;114.65;54.75;;;;;;;10.89;100.00;100713.72;5112827;28;20062;-50
2023/05/10 01:18:38;;;;;;;126.40;55.05;;;;;;;10.88;100.00;100712.84;5116160;28;20024;-48
2023/05/10 01:21:06;;;;;;;127.20;54.72;;;;;;;10.87;100.00;100711.97;5115672;28;20498;-47
2023/05/10 01:23:54;;;;;;;125.32;57.10;;;;;;;10.89;100.00;100706.88;5115869;28;20028;-47
2023/05/10 01:26:41;;;;;;;138.23;58.33;;;;;;;10.91;100.00;100707.78;5113700;28;20118;-49
2023/05/10 01:29:13;;;;;;;143.18;58.05;;;;;;;10.91;100.00;100706.91;5115893;28;20035;-50
2023/05/10 01:31:51;;;;;;;135.05;58.50;;;;;;;10.93;100.00;100702.66;5115791;28;20721;-48
2023/05/10 01:34:23;;;;;;;138.38;59.72;;;;;;;10.93;100.00;100706.09;5115222;28;20394;-52
2023/05/10 01:37:02;;;;;;;138.00;60.80;;;;;;;10.97;100.00;100700.19;5115749;28;20028;-46
2023/05/10 01:39:36;;;;;;;146.77;61.78;;;;;;;10.99;100.00;100703.69;5115571;28;20015;-47
2023/05/10 01:42:09;;;;;;;148.02;61.42;;;;;;;11.01;100.00;100703.72;5115563;28;20129;-49
2023/05/10 01:44:44;;;;;;;190.75;68.13;;;;;;;11.05;100.00;100710.69;5115187;28;20063;-47
2023/05/10 01:47:43;;;;;;;194.20;71.22;;;;;;;11.12;100.00;100716.91;5115580;28;20106;-50
2023/05/10 01:50:15;;;;;;;199.55;70.75;;;;;;;11.13;100.00;100716.03;5070879;28;20048;-48
2023/05/10 01:52:49;;;;;;;234.65;80.38;;;;;;;11.15;100.00;100716.97;5115691;28;20045;-51
2023/05/10 01:55:16;;;;;;;223.07;79.13;;;;;;;11.18;100.00;100723.09;5114956;28;20027;-47
2023/05/10 01:57:44;;;;;;;260.83;82.72;;;;;;;11.24;100.00;100726.66;5115484;28;20032;-47
2023/05/10 02:00:11;;;;;;;243.63;85.97;;;;;;;11.20;100.00;100721.41;5115464;28;20596;-47
2023/05/10 02:02:44;;;;;;;251.00;86.70;;;;;;;11.26;100.00;100720.69;5114620;28;20360;-47
2023/05/10 02:05:12;;;;;;;228.05;82.38;;;;;;;11.26;100.00;100724.97;5114966;28;20478;-47
2023/05/10 02:07:38;;;;;;;251.23;84.07;;;;;;;11.29;100.00;100719.91;5115061;28;20027;-47
2023/05/10 02:10:06;;;;;;;237.55;84.82;;;;;;;11.31;100.00;100723.38;5114609;28;20036;-49
2023/05/10 02:12:35;;;;;;;250.55;84.93;;;;;;;11.32;100.00;100725.13;5114905;28;20023;-47
2023/05/10 02:15:02;;;;;;;217.40;83.45;;;;;;;11.33;100.00;100721.72;5115363;28;20031;-49
2023/05/10 02:17:29;;;;;;;220.77;86.18;;;;;;;11.33;100.00;100726.88;5114288;28;20019;-47
2023/05/10 02:19:56;;;;;;;237.27;88.05;;;;;;;11.35;100.00;100730.38;5114910;28;20114;-51
2023/05/10 02:22:22;;;;;;;225.23;89.63;;;;;;;11.37;100.00;100739.00;5114664;28;20031;-50
2023/05/10 02:24:50;;;;;;;217.38;87.32;;;;;;;11.35;100.00;100743.28;5114389;28;20040;-47
2023/05/10 02:27:17;;;;;;;205.57;83.50;;;;;;;11.37;100.00;100733.84;5114694;28;20375;-48
2023/05/10 02:29:44;;;;;;;221.30;85.30;;;;;;;11.40;100.00;100736.53;5114542;28;20034;-49
2023/05/10 02:32:10;;;;;;;212.25;86.30;;;;;;;11.39;100.00;100734.78;5114907;28;20349;-51
2023/05/10 02:34:36;;;;;;;201.35;86.82;;;;;;;11.38;100.00;100730.44;5114640;28;20047;-49
2023/05/10 02:37:02;;;;;;;193.02;84.10;;;;;;;11.40;100.00;100733.06;5114182;28;20419;-48
2023/05/10 02:39:29;;;;;;;193.15;86.60;;;;;;;11.36;100.00;100732.09;5114194;28;20027;-48
2023/05/10 02:41:57;;;;;;;194.00;87.70;;;;;;;11.35;100.00;100733.81;5114940;28;20059;-47
2023/05/10 02:44:23;;;;;;;181.40;85.40;;;;;;;11.26;100.00;100725.84;5113658;28;20471;-50
2023/05/10 02:46:48;;;;;;;177.55;85.35;;;;;;;11.27;100.00;100731.88;5114485;28;20120;-47
2023/05/10 02:49:15;;;;;;;173.27;84.57;;;;;;;11.22;100.00;100733.47;5114354;28;20108;-48
2023/05/10 02:51:48;;;;;;;187.75;87.53;;;;;;;11.22;100.00;100730.88;5113990;28;20069;-48
2023/05/10 02:54:19;;;;;;;196.25;86.90;;;;;;;11.26;100.00;100735.28;5114436;28;20035;-47
2023/05/10 02:56:55;;;;;;;191.43;86.72;;;;;;;11.27;100.00;100734.47;5114531;28;20030;-48
2023/05/10 02:59:21;;;;;;;195.80;89.93;;;;;;;11.30;100.00;100731.97;5113563;28;20042;-47
2023/05/10 03:01:47;;;;;;;193.20;87.35;;;;;;;11.30;100.00;100737.13;5114028;28;20391;-50
2023/05/10 03:04:13;;;;;;;209.25;90.30;;;;;;;11.32;100.00;100740.59;5113981;28;20051;-48
2023/05/10 03:06:38;;;;;;;202.70;90.07;;;;;;;11.33;100.00;100740.63;5113562;28;20027;-50
2023/05/10 03:09:04;;;;;;;197.43;89.05;;;;;;;11.32;100.00;100741.50;5113933;28;20043;-51
2023/05/10 03:12:05;;;;;;;210.05;91.82;;;;;;;11.37;100.00;100741.59;5113934;28;20088;-47
2023/05/10 03:14:36;;;;;;;214.27;91.68;;;;;;;11.37;100.00;100733.84;5113393;28;20458;-47
2023/05/10 03:17:15;;;;;;;212.98;93.55;;;;;;;11.36;100.00;100738.16;5114176;28;20140;-49
2023/05/10 03:20:02;;;;;;;200.05;91.82;;;;;;;11.39;100.00;100739.94;5113579;28;20119;-47
2023/05/10 03:22:32;;;;;;;215.07;96.30;;;;;;;11.35;100.00;100746.72;5113444;28;20059;-49
2023/05/10 03:24:59;;;;;;;227.15;94.18;;;;;;;11.36;100.00;100737.25;5113617;28;20035;-51
2023/05/10 03:27:26;;;;;;;216.40;99.72;;;;;;;11.35;100.00;100748.44;5113225;28;20024;-52
2023/05/10 03:29:54;;;;;;;222.80;96.80;;;;;;;11.35;100.00;100751.03;5113763;28;20020;-47
2023/05/10 03:32:20;;;;;;;217.75;97.07;;;;;;;11.36;100.00;100750.16;5113540;28;20111;-52
2023/05/10 03:34:45;;;;;;;227.63;99.07;;;;;;;11.38;100.00;100751.09;5113186;28;20428;-51
2023/05/10 03:37:10;;;;;;;236.95;99.85;;;;;;;11.40;100.00;100749.44;5113324;28;20455;-47
2023/05/10 03:39:36;;;;;;;221.20;99.88;;;;;;;11.37;100.00;100754.50;5112874;28;20034;-52
2023/05/10 03:42:01;;;;;;;229.13;97.50;;;;;;;11.39;100.00;100757.09;5112986;28;20051;-48
2023/05/10 03:44:26;;;;;;;246.18;98.45;;;;;;;11.39;100.00;100752.84;5113329;28;20035;-47
2023/05/10 03:46:52;;;;;;;227.35;99.10;;;;;;;11.41;100.00;100755.44;5112895;28;20038;-47
2023/05/10 03:49:17;;;;;;;229.10;99.68;;;;;;;11.41;100.00;100764.06;5112951;28;20073;-47
2023/05/10 03:51:42;;;;;;;231.27;97.72;;;;;;;11.41;100.00;100758.88;5113422;28;20467;-51
2023/05/10 03:54:07;;;;;;;210.50;93.22;;;;;;;11.38;100.00;100761.41;5112798;28;20039;-51
2023/05/10 03:56:33;;;;;;;205.65;94.82;;;;;;;11.41;100.00;100761.47;5112995;28;20024;-47
2023/05/10 03:58:58;;;;;;;213.23;94.47;;;;;;;11.42;100.00;100760.63;5113468;28;20047;-50
2023/05/10 04:01:23;;;;;;;199.18;88.35;;;;;;;11.41;100.00;100761.47;5112438;28;20073;-48
2023/05/10 04:03:49;;;;;;;202.65;91.18;;;;;;;11.44;100.00;100766.72;5113206;28;20026;-47
2023/05/10 04:06:14;;;;;;;186.88;88.47;;;;;;;11.41;100.00;100771.78;5113227;28;20099;-47
2023/05/10 04:08:39;;;;;;;188.07;88.95;;;;;;;11.46;100.00;100769.34;5112100;28;20066;-48
2023/05/10 04:11:07;;;;;;;182.30;88.22;;;;;;;11.44;100.00;100777.03;5112958;28;20027;-51
2023/05/10 04:13:32;;;;;;;;;;;;;;;11.49;100.00;100775.44;5113419;28;20024;-47
2023/05/10 04:15:57;;;;;;;168.48;80.95;;;;;;;11.45;100.00;100772.75;5112680;28;19987;-51
2023/05/10 04:18:23;;;;;;;155.20;78.75;;;;;;;11.44;100.00;100771.88;5112480;28;20049;-48
2023/05/10 04:20:48;;;;;;;156.00;77.50;;;;;;;11.42;100.00;100776.13;5113319;28;20032;-47
2023/05/10 04:23:14;;;;;;;159.63;73.68;;;;;;;11.40;100.00;100777.81;5112596;28;20032;-47
2023/05/10 04:25:39;;;;;;;157.23;75.28;;;;;;;11.40;100.00;100769.19;5112760;28;20027;-50
2023/05/10 04:28:04;;;;;;;151.50;70.95;;;;;;;11.36;100.00;100774.28;5113000;28;20467;-52
2023/05/10 04:30:30;;;;;;;135.50;65.28;;;;;;;11.33;100.00;100778.47;5112237;28;20036;-51
2023/05/10 04:32:55;;;;;;;125.10;60.92;;;;;;;11.22;100.00;100777.31;5112808;28;20020;-47
2023/05/10 04:35:21;;;;;;;112.10;57.40;;;;;;;11.19;100.00;100786.75;5112725;28;20031;-47
2023/05/10 04:37:46;;;;;;;112.30;57.70;;;;;;;11.18;100.00;100785.00;5112266;28;20027;-51
2023/05/10 04:40:12;;;;;;;92.03;53.67;;;;;;;11.10;100.00;100791.63;5112662;28;20016;-47
2023/05/10 04:42:40;;;;;;;103.72;53.08;;;;;;;11.11;100.00;100789.94;5112807;28;20103;-51
2023/05/10 04:45:07;;;;;;;93.72;52.72;;;;;;;11.08;100.00;100788.16;5112163;28;20448;-47
2023/05/10 04:47:32;;;;;;;94.57;50.72;;;;;;;11.07;100.00;100793.28;5112595;28;20043;-48
2023/05/10 04:49:58;;;;;;;93.32;52.58;;;;;;;11.01;100.00;100788.81;5112923;28;20020;-51
2023/05/10 04:52:23;;;;;;;89.82;49.97;;;;;;;10.98;100.00;100801.66;5114082;28;20532;-49
2023/05/10 04:54:48;;;;;;;83.38;49.55;;;;;;;10.95;100.00;100791.22;5116716;28;20425;-47
2023/05/10 04:57:14;;;;;;;87.80;50.53;;;;;;;10.93;100.00;100804.09;5116281;28;20035;-50
2023/05/10 04:59:39;;;;;;;98.32;51.22;;;;;;;10.92;100.00;100802.34;5116269;28;20026;-50
2023/05/10 05:02:05;;;;;;;89.32;49.67;;;;;;;10.94;100.00;100807.56;5116715;28;20413;-48
2023/05/10 05:04:30;;;;;;;94.63;51.95;;;;;;;10.93;100.00;100808.38;5115683;28;20019;-48
2023/05/10 05:06:56;;;;;;;97.00;52.67;;;;;;;10.96;100.00;100801.59;5116226;28;20493;-47
2023/05/10 05:09:21;;;;;;;94.05;53.50;;;;;;;10.96;100.00;100808.44;5116111;28;20044;-49
2023/05/10 05:11:46;;;;;;;96.25;53.45;;;;;;;10.98;100.00;100809.38;5116037;28;20542;-47
2023/05/10 05:14:12;;;;;;;97.65;52.88;;;;;;;10.97;100.00;100799.91;5116500;28;20023;-49
2023/05/10 05:16:37;;;;;;;98.55;53.47;;;;;;;10.99;100.00;100809.41;5116095;28;20031;-48
2023/05/10 05:19:02;;;;;;;89.70;51.95;;;;;;;11.00;100.00;100811.16;5115778;28;20080;-48
2023/05/10 05:21:28;;;;;;;93.63;52.25;;;;;;;11.07;100.00;100812.22;5115644;28;20100;-48
2023/05/10 05:23:53;;;;;;;90.55;51.95;;;;;;;11.07;100.00;100801.88;5116163;28;20019;-47
2023/05/10 05:26:19;;;;;;;88.20;50.97;;;;;;;11.11;100.00;100813.16;5115434;28;20019;-47
2023/05/10 05:28:44;;;;;;;79.07;49.30;;;;;;;11.08;100.00;100813.97;5116030;28;20073;-50
2023/05/10 05:31:09;;;;;;;77.05;46.78;;;;;;;11.10;100.00;100816.56;5116266;28;20030;-48
2023/05/10 05:33:35;;;;;;;78.57;46.70;;;;;;;11.12;100.00;100826.09;5115237;28;20027;-47
2023/05/10 05:36:02;;;;;;;76.43;46.78;;;;;;;11.11;100.00;100824.34;5115698;28;20028;-49
2023/05/10 05:38:27;;;;;;;80.95;50.35;;;;;;;11.16;100.00;100822.75;5115573;28;20019;-51
2023/05/10 05:40:52;;;;;;;74.68;48.42;;;;;;;11.24;100.00;100820.38;5115437;28;20081;-48
2023/05/10 05:43:17;;;;;;;78.75;47.10;;;;;;;11.24;100.00;100824.69;5115491;28;20084;-49
2023/05/10 05:45:43;;;;;;;72.15;45.42;;;;;;;11.27;100.00;100827.34;5115725;28;20110;-52
2023/05/10 05:48:08;;;;;;;72.88;45.67;;;;;;;11.27;100.00;100830.81;5115305;28;20055;-50
2023/05/10 05:50:34;;;;;;;71.68;44.65;;;;;;;11.27;100.00;100824.75;5115370;28;20164;-48
2023/05/10 05:52:59;;;;;;;67.63;45.92;;;;;;;11.27;100.00;100825.66;5115506;28;20028;-51
2023/05/10 05:55:25;;;;;;;66.20;43.72;;;;;;;11.28;100.00;100827.38;5114665;28;20042;-50
2023/05/10 05:57:51;;;;;;;74.53;45.35;;;;;;;11.34;100.00;100831.84;5115625;28;20034;-49
2023/05/10 06:00:17;;;;;;;70.25;45.30;;;;;;;11.49;100.00;100823.59;5115168;28;20015;-47
2023/05/10 06:02:42;;;;;;;66.55;43.33;;;;;;;11.48;100.00;100830.47;5114300;28;20023;-48
2023/05/10 06:05:08;;;;;;;60.08;39.85;;;;;;;11.47;100.00;100838.19;5115152;28;20386;-50
2023/05/10 06:07:33;;;;;;;63.78;41.72;;;;;;;11.55;100.00;100825.47;5114441;28;20516;-49
2023/05/10 06:09:59;;;;;;;60.35;42.38;;;;;;;11.61;100.00;100834.25;5115101;28;20044;-51
2023/05/10 06:12:24;;;;;;;68.40;42.75;;;;;;;11.68;100.00;100832.69;5115178;28;20035;-50
2023/05/10 06:14:49;;;;;;;64.28;41.65;;;;;;;11.70;100.00;100836.19;5114657;28;20738;-48
2023/05/10 06:17:14;;;;;;;62.30;40.05;;;;;;;11.75;100.00;100852.66;5115035;28;20111;-51
2023/05/10 06:19:40;;;;;;;64.43;40.53;;;;;;;11.70;100.00;100849.09;5115112;28;20080;-46
2023/05/10 06:22:05;;;;;;;57.83;39.40;;;;;;;11.70;100.00;100854.25;5114435;28;20031;-48
2023/05/10 06:24:30;;;;;;;59.75;39.97;;;;;;;11.70;100.00;100849.09;5114606;28;20466;-48
2023/05/10 06:26:56;;;;;;;61.60;40.63;;;;;;;11.71;100.00;100848.28;5115112;28;20024;-47
2023/05/10 06:29:21;;;;;;;60.55;39.25;;;;;;;11.72;100.00;100847.41;5114005;28;20375;-48
2023/05/10 06:31:47;;;;;;;58.67;40.53;;;;;;;11.77;100.00;100856.13;5114665;28;20467;-48
2023/05/10 06:34:13;;;;;;;57.63;40.10;;;;;;;11.90;100.00;100854.72;5114744;28;20027;-49
2023/05/10 06:36:38;;;;;;;67.88;41.00;;;;;;;11.95;100.00;100862.59;5114278;28;20027;-47
2023/05/10 06:39:03;;;;;;;59.25;40.47;;;;;;;11.98;100.00;100861.00;5114730;28;20486;-48
2023/05/10 06:41:29;;;;;;;59.40;40.90;;;;;;;12.11;100.00;100869.94;5114460;28;20027;-52
2023/05/10 06:43:54;;;;;;;57.53;40.25;;;;;;;12.15;100.00;100871.75;5114032;28;20106;-49
2023/05/10 06:46:19;;;;;;;57.35;39.38;;;;;;;12.22;100.00;100866.72;5113903;28;20031;-49
2023/05/10 06:48:45;;;;;;;55.45;39.15;;;;;;;12.16;100.00;100878.66;5114511;28;20387;-47
2023/05/10 06:51:10;;;;;;;53.75;39.60;;;;;;;12.15;100.00;100874.31;5113839;28;20026;-48
2023/05/10 06:53:36;;;;;;;59.47;40.55;;;;;;;12.15;100.00;100876.91;5114175;28;20446;-51
2023/05/10 06:56:02;;;;;;;55.58;39.97;;;;;;;12.17;100.00;100880.41;5114568;28;20028;-48
2023/05/10 06:58:28;;;;;;;57.47;41.03;;;;;;;12.21;100.00;100877.88;5113335;28;20421;-47
2023/05/10 07:00:53;;;;;;;58.83;38.72;;;;;;;12.23;100.00;100882.25;5114457;28;20024;-50
2023/05/10 07:03:18;;;;;;;57.40;40.08;;;;;;;12.32;100.00;100884.19;5113983;28;20031;-49
2023/05/10 07:05:44;;;;;;;58.67;39.80;;;;;;;12.27;100.00;100881.47;5113213;28;20035;-49
2023/05/10 07:08:09;;;;;;;56.47;38.42;;;;;;;12.24;100.00;100896.94;5114120;28;20110;-51
2023/05/10 07:10:34;;;;;;;58.42;39.28;;;;;;;12.20;100.00;100889.94;5113662;28;20567;-52
2023/05/10 07:13:01;;;;;;;59.00;39.45;;;;;;;12.19;100.00;100894.22;5113258;28;20034;-48
2023/05/10 07:15:26;;;;;;;59.70;39.60;;;;;;;12.11;100.00;100894.88;5113008;28;20063;-48
2023/05/10 07:17:52;;;;;;;57.38;40.42;;;;;;;12.04;100.00;100896.44;5113447;28;20464;-50
2023/05/10 07:20:17;;;;;;;62.78;41.10;;;;;;;12.07;100.00;100899.13;5113489;28;20042;-47
2023/05/10 07:22:42;;;;;;;57.92;41.20;;;;;;;12.01;100.00;100909.28;5113953;28;20438;-50
2023/05/10 07:25:08;;;;;;;59.30;41.03;;;;;;;12.00;100.00;100907.53;5113188;28;20468;-47
2023/05/10 07:27:33;;;;;;;62.80;40.92;;;;;;;11.98;100.00;100901.44;5113510;28;20028;-47
2023/05/10 07:29:58;;;;;;;65.00;43.35;;;;;;;11.96;100.00;100906.56;5098071;28;20027;-49
2023/05/10 07:32:24;;;;;;;67.45;42.92;;;;;;;11.94;100.00;100917.69;5092508;28;20542;-47
2023/05/10 07:34:49;;;;;;;64.60;43.05;;;;;;;11.97;100.00;100912.63;5092977;28;20107;-49
2023/05/10 07:37:14;;;;;;;62.88;42.85;;;;;;;11.95;100.00;100919.44;5093179;28;20028;-49
2023/05/10 07:39:39;;;;;;;64.15;41.72;;;;;;;11.96;100.00;100910.88;5092617;28;20158;-50
2023/05/10 07:42:05;;;;;;;61.33;41.65;;;;;;;11.96;100.00;100911.75;5093014;28;20017;-50
2023/05/10 07:44:30;;;;;;;64.25;42.35;;;;;;;11.90;100.00;100921.88;5092842;28;20372;-50
2023/05/10 07:46:56;;;;;;;61.30;41.47;;;;;;;11.90;100.00;100918.44;5092629;28;20024;-47
2023/05/10 07:49:23;;;;;;;59.33;39.47;;;;;;;11.84;100.00;100925.19;5092439;28;20375;-47
2023/05/10 07:51:49;;;;;;;52.65;38.97;;;;;;;11.82;100.00;100928.56;5093136;28;20035;-48
2023/05/10 07:54:14;;;;;;;48.50;34.33;;;;;;;11.69;100.00;100920.50;5092466;28;20032;-49
2023/05/10 07:56:44;;;;;;;49.40;35.35;;;;;;;11.70;100.00;100930.00;5092455;28;20103;-47
2023/05/10 07:59:10;;;;;;;50.10;34.80;;;;;;;11.67;100.00;100932.50;5093214;28;20016;-48
2023/05/10 08:01:35;;;;;;;49.08;34.70;;;;;;;11.69;100.00;100942.88;5091846;28;20055;-47
2023/05/10 08:04:01;;;;;;;48.97;34.35;;;;;;;11.75;100.00;100945.63;5093311;28;20069;-50
2023/05/10 08:06:27;;;;;;;44.53;32.47;;;;;;;11.79;100.00;100944.00;5092424;28;20043;-51
2023/05/10 08:08:53;;;;;;;41.90;29.80;;;;;;;11.80;100.00;100946.63;5092132;28;20040;-48
2023/05/10 08:11:20;;;;;;;38.35;27.88;;;;;;;11.78;100.00;100953.44;5092459;28;20374;-46
2023/05/10 08:13:46;;;;;;;38.92;29.10;;;;;;;11.82;100.00;100954.41;5092986;28;20105;-49
2023/05/10 08:16:11;;;;;;;36.95;26.50;;;;;;;11.85;100.00;100955.34;5092065;28;20432;-48
2023/05/10 08:18:37;;;;;;;34.97;25.15;;;;;;;11.96;100.00;100955.66;5092614;28;20055;-47
2023/05/10 08:21:03;;;;;;;35.25;25.88;;;;;;;12.21;100.00;100964.00;5092679;28;20020;-47
2023/05/10 08:23:28;;;;;;;30.77;24.63;;;;;;;12.46;100.00;100955.16;5091983;28;20058;-49
2023/05/10 08:25:53;;;;;;;29.95;22.92;;;;;;;12.56;100.00;100966.56;5094478;28;20107;-48
2023/05/10 08:28:18;;;;;;;30.77;22.90;;;;;;;12.87;100.00;100961.22;5096232;28;20467;-47
2023/05/10 08:30:44;;;;;;;27.38;20.77;;;;;;;12.99;100.00;100972.72;5096526;28;20043;-46
2023/05/10 08:33:09;;;;;;;31.95;20.63;;;;;;;13.08;100.00;100965.97;5096855;28;20073;-51
2023/05/10 08:35:34;;;;;;;28.40;21.35;;;;;;;13.23;100.00;100970.63;5095973;28;20900;-48
2023/05/10 08:38:00;;;;;;;23.00;18.27;;;;;;;13.30;100.00;100967.31;5096404;28;20030;-49
2023/05/10 08:40:26;;;;;;;23.25;19.27;;;;;;;13.26;100.00;100973.25;5096566;28;20032;-52
2023/05/10 08:43:03;;;;;;;23.42;18.85;;;;;;;13.21;100.00;100973.19;5095982;28;20452;-51
2023/05/10 08:45:32;;;;;;;23.30;19.50;;;;;;;13.26;100.00;100976.75;5096123;28;20063;-51
2023/05/10 08:48:01;;;;;;;25.50;19.35;;;;;;;13.21;100.00;100975.78;5096622;28;20016;-47
2023/05/10 08:50:26;;;;;;;25.10;18.73;;;;;;;13.29;100.00;100973.34;5095763;28;20119;-50
2023/05/10 08:52:53;;;;;;;23.75;18.75;;;;;;;13.39;100.00;100977.91;5096262;28;20020;-48
2023/05/10 08:55:18;;;;;;;22.98;18.38;;;;;;;13.40;100.00;100984.81;5096253;28;20031;-45
2023/05/10 08:57:44;;;;;;;20.10;17.75;;;;;;;13.33;100.00;100978.59;5095593;28;20020;-48
2023/05/10 09:00:10;;;;;;;21.55;16.63;;;;;;;13.21;100.00;100982.63;5096276;28;20020;-51
2023/05/10 09:02:36;;;;;;;21.85;16.85;;;;;;;13.09;100.00;100994.50;5095873;28;20044;-49
2023/05/10 09:05:04;;;;;;;17.52;14.43;;;;;;;13.18;100.00;100986.94;5095259;28;20063;-49
2023/05/10 09:07:29;;;;;;;18.83;15.25;;;;;;;13.13;100.00;100990.25;5095774;28;20468;-48
2023/05/10 09:09:55;;;;;;;18.77;15.05;;;;;;;13.15;100.00;100991.16;5095956;28;20096;-50
2023/05/10 09:12:21;;;;;;;19.20;15.25;;;;;;;13.22;100.00;100990.47;5095123;28;20028;-48
2023/05/10 09:14:46;;;;;;;19.65;14.90;;;;;;;13.19;100.00;100995.56;5095877;28;20028;-47
2023/05/10 09:17:12;;;;;;;19.48;14.07;;;;;;;13.26;100.00;100996.56;5095881;28;20024;-49
2023/05/10 09:19:37;;;;;;;17.33;12.88;;;;;;;13.20;100.00;100996.44;5095010;28;20391;-47
2023/05/10 09:22:03;;;;;;;16.10;13.60;;;;;;;13.21;100.00;101005.94;5095930;28;20107;-51
2023/05/10 09:24:30;;;;;;;16.20;12.75;;;;;;;13.29;100.00;101004.41;5094984;28;20052;-48
2023/05/10 09:26:57;;;;;;;14.97;10.80;;;;;;;13.25;100.00;101006.03;5095527;28;20038;-50
2023/05/10 09:29:22;;;;;;;17.33;12.10;;;;;;;13.30;100.00;101004.44;5095335;28;20270;-47
2023/05/10 09:31:54;;;;;;;14.95;11.43;;;;;;;13.52;100.00;101001.44;5095132;28;20736;-48
2023/05/10 09:34:31;;;;;;;13.70;10.25;;;;;;;13.63;100.00;101008.59;5095322;28;20024;-47
2023/05/10 09:37:01;;;;;;;12.00;9.70;;;;;;;13.66;100.00;101013.81;5094864;28;20016;-50
2023/05/10 09:39:38;;;;;;;12.90;9.13;;;;;;;13.73;100.00;101008.75;5094746;28;20031;-48
2023/05/10 09:42:12;;;;;;;13.20;9.85;;;;;;;13.86;100.00;101009.88;5095233;28;20020;-50
2023/05/10 09:44:39;;;;;;;14.13;10.18;;;;;;;13.90;100.00;101009.06;5095285;28;20036;-52
2023/05/10 09:47:04;;;;;;;13.35;9.27;;;;;;;14.10;100.00;101014.59;5094851;28;20016;-51
2023/05/10 09:49:31;;;;;;;12.73;8.32;;;;;;;14.13;100.00;101010.34;5095062;28;20020;-50
2023/05/10 09:52:06;;;;;;;13.17;8.93;;;;;;;13.96;100.00;101012.63;5095494;28;20401;-51
2023/05/10 09:54:33;;;;;;;13.25;9.35;;;;;;;14.09;100.00;101016.31;5094131;28;20505;-51
2023/05/10 09:56:58;;;;;;;14.20;9.95;;;;;;;13.99;100.00;101017.91;5095130;28;20031;-51
2023/05/10 09:59:27;;;;;;;11.95;9.50;;;;;;;13.97;100.00;101019.56;5095023;28;20020;-50
2023/05/10 10:01:56;;;;;;;12.88;9.38;;;;;;;14.09;100.00;101016.31;5094211;28;20471;-48
2023/05/10 10:04:21;;;;;;;12.20;9.27;;;;;;;14.15;100.00;101019.03;5094807;28;20036;-47
2023/05/10 10:06:58;;;;;;;12.40;9.90;;;;;;;14.41;100.00;101018.59;5094475;28;20024;-48
2023/05/10 10:09:24;;;;;;;12.37;9.20;;;;;;;14.43;100.00;101014.31;5094401;28;20040;-52
2023/05/10 10:11:50;;;;;;;11.20;9.25;;;;;;;14.55;100.00;101016.25;5095076;28;20024;-48
2023/05/10 10:14:18;;;;;;;13.88;9.10;;;;;;;14.80;100.00;101024.44;5094277;28;20039;-49
2023/05/10 10:16:44;;;;;;;12.95;8.38;;;;;;;15.66;100.00;101018.63;5094711;28;20020;-50
2023/05/10 10:19:10;;;;;;;13.05;8.90;;;;;;;15.89;100.00;101026.69;5094847;28;20077;-48
2023/05/10 10:21:35;;;;;;;11.32;7.60;;;;;;;16.07;100.00;101021.69;5093897;28;20032;-51
2023/05/10 10:24:01;;;;;;;11.07;7.90;;;;;;;15.96;100.00;101020.72;5094609;28;20027;-50
2023/05/10 10:26:26;;;;;;;10.02;7.03;;;;;;;15.70;100.00;101021.28;5094417;28;20032;-51
2023/05/10 10:29:04;;;;;;;11.25;7.43;;;;;;;15.42;100.00;101026.13;5093970;28;20383;-51
2023/05/10 10:31:38;;;;;;;12.30;7.82;;;;;;;15.51;100.00;101030.59;5094263;28;20047;-50
2023/05/10 10:34:10;;;;;;;11.73;7.55;;;;;;;15.63;100.00;101035.03;5094429;28;20024;-50
2023/05/10 10:36:44;;;;;;;10.43;7.68;;;;;;;15.66;100.00;101029.00;5093443;28;20073;-50
2023/05/10 10:39:11;;;;;;;10.73;7.25;;;;;;;16.34;100.00;101030.59;5094219;28;20077;-48
2023/05/10 10:41:44;;;;;;;10.15;7.22;;;;;;;16.49;100.00;101031.59;5094202;28;20020;-47
2023/05/10 10:44:33;;;;;;;7.70;5.18;;;;;;;16.11;100.00;101030.38;5093595;28;20020;-48
2023/05/10 10:47:23;;;;;;;9.70;6.45;;;;;;;15.52;100.00;101034.03;5094425;28;20028;-48
2023/05/10 10:49:51;;;;;;;9.70;6.93;;;;;;;15.20;100.00;101029.31;5093719;28;20035;-50
2023/05/10 10:52:32;;;;;;;10.02;7.28;;;;;;;14.94;100.00;101037.63;5093692;28;20124;-50
2023/05/10 10:55:24;;;;;;;13.40;8.15;;;;;;;14.67;100.00;101028.56;5093930;28;20024;-47
2023/05/10 10:57:52;;;;;;;17.13;12.05;;;;;;;14.85;100.00;101025.38;5093434;28;20070;-48
2023/05/10 11:00:26;;;;;;;20.75;15.85;;;;;;;15.02;100.00;101025.63;5093741;28;20020;-49